Airfield :
LOGIN :

Register | Disclaimer

   EN    FR    IT 

 










Legend :    VFR   Marginal VFR   IFR   Intensive IFR   Very Intensive IFR
Visi :
Ceiling :
>= 8 km
>= 3000ft
5 to 8 km
1000 to 3000 ft
1500m to 5 km
500 to 1000 ft
800 to 1500m
200 to 500 ft
< 800m
< 200 ft
Symbols :   Thunderstorms  Fog  Heavy snow  Heavy precipitations  Wind > 20 kt
SIGMETs :     Misc.  Thunderstorms  Icing  Turbulence  Mountain Waves  Volcanic Ashes






- Airport Elevation : 289 ft


LFYR - Romorantin Pruniers

CURRENT METAR :
  • 272200Z AUTO 21010KT 9999 FEW020 BKN049 BKN056 09/07 Q1005

EXPIRED METARs :
  • 272130Z AUTO 21010KT 180V250 9999 BKN020 BKN032 BKN062 09/07 Q1005
  • 272100Z AUTO 21010KT 180V240 9999 FEW027 SCT045 BKN120 09/07 Q1005
  • 272030Z AUTO 21008KT 190V260 9999 FEW017 SCT052 BKN120 09/08 Q1005
  • 272000Z AUTO 22010KT 9999 SCT022/// BKN049/// BKN074/// ///CB 09/07 Q1005
  • 271930Z AUTO 21008KT 9999 -RA BKN029 OVC035 08/07 Q1005

Expired Forecast.



MET'MAP, your aeronautical weather chart ! - Copyright ORBIFLY December 2007 - Disclaimer

ORBIFLY MET'MAP TEAM :

Programming & Development : Alexandra Zaïnal
Concept & original design : Baudouin d'Aumeries
Assistance for programming : Marc-Olivier Méhu
Technical & hardware support : Manuel Goepfert

Contact : metmap@orbifly.com




SOURCES & CREDITS :

   NOAA